sensor_id;sensor_type;location;lat;lon;timestamp;pressure;altitude;pressure_sealevel;temperature;humidity
13456;BME280;6800;50.940;6.940;2023-01-31T00:02:30;101747.28;;;16.80;37.44
13456;BME280;6800;50.940;6.940;2023-01-31T00:06:34;101743.09;;;16.90;37.20
13456;BME280;6800;50.940;6.940;2023-01-31T00:10:35;101747.28;;;16.80;37.33
13456;BME280;6800;50.940;6.940;2023-01-31T00:14:40;101742.31;;;16.76;37.25
13456;BME280;6800;50.940;6.940;2023-01-31T00:18:42;101733.53;;;16.49;37.78
13456;BME280;6800;50.940;6.940;2023-01-31T00:22:44;101754.97;;;16.71;37.23
13456;BME280;6800;50.940;6.940;2023-01-31T00:26:45;101740.03;;;16.43;37.85
13456;BME280;6800;50.940;6.940;2023-01-31T00:30:48;101744.72;;;16.52;37.83
13456;BME280;6800;50.940;6.940;2023-01-31T00:34:50;101744.44;;;16.83;37.43
13456;BME280;6800;50.940;6.940;2023-01-31T00:38:53;101740.28;;;16.67;37.35
13456;BME280;6800;50.940;6.940;2023-01-31T00:42:55;101744.50;;;16.69;37.31
13456;BME280;6800;50.940;6.940;2023-01-31T00:46:56;101737.78;;;16.78;37.33
13456;BME280;6800;50.940;6.940;2023-01-31T00:50:58;101738.28;;;16.29;37.93
13456;BME280;6800;50.940;6.940;2023-01-31T00:54:59;101734.47;;;16.48;37.80
13456;BME280;6800;50.940;6.940;2023-01-31T00:59:00;101734.00;;;16.55;37.73
13456;BME280;6800;50.940;6.940;2023-01-31T01:03:04;101738.91;;;16.47;37.47
13456;BME280;6800;50.940;6.940;2023-01-31T01:07:05;101738.72;;;16.36;37.66
13456;BME280;6800;50.940;6.940;2023-01-31T01:11:16;101740.94;;;16.01;38.50
13456;BME280;6800;50.940;6.940;2023-01-31T01:19:27;101755.06;;;15.72;38.93
13456;BME280;6800;50.940;6.940;2023-01-31T01:23:28;101750.25;;;16.07;38.50
13456;BME280;6800;50.940;6.940;2023-01-31T01:27:31;101751.72;;;16.53;37.68
13456;BME280;6800;50.940;6.940;2023-01-31T01:31:33;101748.47;;;16.21;37.95
13456;BME280;6800;50.940;6.940;2023-01-31T01:35:35;101750.75;;;16.40;37.89
13456;BME280;6800;50.940;6.940;2023-01-31T01:39:37;101750.34;;;16.19;38.10
13456;BME280;6800;50.940;6.940;2023-01-31T01:43:52;101746.69;;;16.08;38.24
13456;BME280;6800;50.940;6.940;2023-01-31T01:47:58;101747.72;;;16.19;38.05
13456;BME280;6800;50.940;6.940;2023-01-31T01:52:04;101731.72;;;16.08;37.95
13456;BME280;6800;50.940;6.940;2023-01-31T01:56:10;101732.56;;;16.09;37.96
13456;BME280;6800;50.940;6.940;2023-01-31T02:00:19;101733.41;;;16.23;37.73
13456;BME280;6800;50.940;6.940;2023-01-31T02:04:23;101734.53;;;16.05;37.88
13456;BME280;6800;50.940;6.940;2023-01-31T02:08:28;101735.84;;;16.12;38.03
13456;BME280;6800;50.940;6.940;2023-01-31T02:12:32;101729.69;;;16.40;37.14
13456;BME280;6800;50.940;6.940;2023-01-31T02:16:34;101725.91;;;15.89;38.08
13456;BME280;6800;50.940;6.940;2023-01-31T02:20:47;101733.75;;;16.31;37.67
13456;BME280;6800;50.940;6.940;2023-01-31T02:25:08;101729.91;;;16.23;37.52
13456;BME280;6800;50.940;6.940;2023-01-31T02:33:43;101731.25;;;16.02;37.93
13456;BME280;6800;50.940;6.940;2023-01-31T02:38:08;101741.63;;;16.05;38.10
13456;BME280;6800;50.940;6.940;2023-01-31T02:42:23;101725.81;;;16.05;37.97
13456;BME280;6800;50.940;6.940;2023-01-31T02:47:00;101726.00;;;15.88;38.24
13456;BME280;6800;50.940;6.940;2023-01-31T02:51:06;101720.66;;;15.75;38.23
13456;BME280;6800;50.940;6.940;2023-01-31T02:55:25;101732.22;;;15.73;38.54
13456;BME280;6800;50.940;6.940;2023-01-31T02:59:47;101727.78;;;15.87;38.15
13456;BME280;6800;50.940;6.940;2023-01-31T03:03:49;101739.38;;;15.71;38.25
13456;BME280;6800;50.940;6.940;2023-01-31T03:07:53;101738.22;;;15.75;38.32
13456;BME280;6800;50.940;6.940;2023-01-31T03:12:19;101729.31;;;15.77;38.60
13456;BME280;6800;50.940;6.940;2023-01-31T03:16:32;101723.38;;;15.74;38.01
13456;BME280;6800;50.940;6.940;2023-01-31T03:21:08;101718.22;;;15.58;38.63
13456;BME280;6800;50.940;6.940;2023-01-31T03:25:14;101723.63;;;15.41;38.64
13456;BME280;6800;50.940;6.940;2023-01-31T03:29:17;101721.78;;;15.27;38.74
13456;BME280;6800;50.940;6.940;2023-01-31T03:33:25;101711.84;;;15.18;39.12
13456;BME280;6800;50.940;6.940;2023-01-31T03:37:56;101720.69;;;15.02;39.57
13456;BME280;6800;50.940;6.940;2023-01-31T03:42:18;101728.06;;;15.11;39.75
13456;BME280;6800;50.940;6.940;2023-01-31T03:51:03;101716.66;;;14.96;39.56
13456;BME280;6800;50.940;6.940;2023-01-31T03:55:14;101712.69;;;14.89;39.92
13456;BME280;6800;50.940;6.940;2023-01-31T03:59:21;101718.06;;;14.72;40.16
13456;BME280;6800;50.940;6.940;2023-01-31T04:03:28;101720.28;;;14.64;40.76
13456;BME280;6800;50.940;6.940;2023-01-31T04:07:31;101722.03;;;14.79;39.99
13456;BME280;6800;50.940;6.940;2023-01-31T04:11:38;101712.13;;;14.68;40.73
13456;BME280;6800;50.940;6.940;2023-01-31T04:15:39;101713.84;;;14.69;40.61
13456;BME280;6800;50.940;6.940;2023-01-31T04:19:41;101706.78;;;14.70;40.37
13456;BME280;6800;50.940;6.940;2023-01-31T04:23:42;101690.25;;;14.68;40.57
13456;BME280;6800;50.940;6.940;2023-01-31T04:27:43;101702.16;;;14.59;40.81
13456;BME280;6800;50.940;6.940;2023-01-31T04:31:45;101684.00;;;14.55;40.54
13456;BME280;6800;50.940;6.940;2023-01-31T04:35:49;101682.50;;;14.51;40.75
13456;BME280;6800;50.940;6.940;2023-01-31T04:39:50;101677.19;;;14.37;40.56
13456;BME280;6800;50.940;6.940;2023-01-31T04:43:52;101682.53;;;14.35;41.03
13456;BME280;6800;50.940;6.940;2023-01-31T04:47:53;101683.56;;;14.33;42.05
13456;BME280;6800;50.940;6.940;2023-01-31T04:51:54;101678.53;;;14.44;40.87
13456;BME280;6800;50.940;6.940;2023-01-31T04:55:56;101673.25;;;14.59;41.06
13456;BME280;6800;50.940;6.940;2023-01-31T04:59:57;101671.88;;;14.68;40.43
13456;BME280;6800;50.940;6.940;2023-01-31T05:03:58;101665.84;;;14.66;40.34
13456;BME280;6800;50.940;6.940;2023-01-31T05:08:00;101670.44;;;14.62;41.05
13456;BME280;6800;50.940;6.940;2023-01-31T05:12:01;101666.88;;;14.63;40.87
13456;BME280;6800;50.940;6.940;2023-01-31T05:16:06;101664.53;;;14.59;41.13
13456;BME280;6800;50.940;6.940;2023-01-31T05:20:08;101662.72;;;14.59;41.07
13456;BME280;6800;50.940;6.940;2023-01-31T05:24:10;101666.06;;;14.63;41.09
13456;BME280;6800;50.940;6.940;2023-01-31T05:28:11;101657.97;;;14.66;41.35
13456;BME280;6800;50.940;6.940;2023-01-31T05:32:13;101652.56;;;14.69;41.18
13456;BME280;6800;50.940;6.940;2023-01-31T05:36:15;101655.81;;;14.88;41.21
13456;BME280;6800;50.940;6.940;2023-01-31T05:40:16;101655.09;;;14.84;41.41
13456;BME280;6800;50.940;6.940;2023-01-31T05:44:18;101651.41;;;15.17;40.92
13456;BME280;6800;50.940;6.940;2023-01-31T05:48:20;101661.50;;;15.24;40.82
13456;BME280;6800;50.940;6.940;2023-01-31T05:52:21;101661.13;;;15.16;41.11
13456;BME280;6800;50.940;6.940;2023-01-31T05:56:23;101654.09;;;15.45;40.28
13456;BME280;6800;50.940;6.940;2023-01-31T06:00:24;101655.19;;;15.13;40.92
13456;BME280;6800;50.940;6.940;2023-01-31T06:04:26;101652.97;;;15.49;40.21
13456;BME280;6800;50.940;6.940;2023-01-31T06:08:27;101661.22;;;15.29;40.16
13456;BME280;6800;50.940;6.940;2023-01-31T06:12:29;101648.44;;;15.37;40.73
13456;BME280;6800;50.940;6.940;2023-01-31T06:16:31;101650.13;;;15.38;40.45
13456;BME280;6800;50.940;6.940;2023-01-31T06:20:32;101652.47;;;15.42;40.31
13456;BME280;6800;50.940;6.940;2023-01-31T06:24:34;101645.81;;;15.37;40.38
13456;BME280;6800;50.940;6.940;2023-01-31T06:28:35;101636.69;;;15.42;40.62
13456;BME280;6800;50.940;6.940;2023-01-31T06:32:37;101623.63;;;15.41;40.53
13456;BME280;6800;50.940;6.940;2023-01-31T06:36:38;101629.66;;;15.57;39.71
13456;BME280;6800;50.940;6.940;2023-01-31T06:40:40;101620.06;;;15.70;39.62
13456;BME280;6800;50.940;6.940;2023-01-31T06:44:41;101620.69;;;15.74;39.37
13456;BME280;6800;50.940;6.940;2023-01-31T06:48:43;101607.19;;;15.66;39.69
13456;BME280;6800;50.940;6.940;2023-01-31T06:52:46;101618.47;;;15.68;39.62
13456;BME280;6800;50.940;6.940;2023-01-31T06:56:48;101619.25;;;15.96;39.12
13456;BME280;6800;50.940;6.940;2023-01-31T07:00:49;101630.38;;;15.87;39.00
13456;BME280;6800;50.940;6.940;2023-01-31T07:04:51;101644.31;;;15.75;39.55
13456;BME280;6800;50.940;6.940;2023-01-31T07:08:53;101633.78;;;16.16;40.14
13456;BME280;6800;50.940;6.940;2023-01-31T07:12:54;101636.78;;;16.24;39.55
13456;BME280;6800;50.940;6.940;2023-01-31T07:16:55;101644.75;;;16.49;38.16
13456;BME280;6800;50.940;6.940;2023-01-31T07:20:57;101650.47;;;16.29;38.95
13456;BME280;6800;50.940;6.940;2023-01-31T07:24:58;101653.06;;;16.43;38.44
13456;BME280;6800;50.940;6.940;2023-01-31T07:29:00;101655.03;;;16.39;37.90
13456;BME280;6800;50.940;6.940;2023-01-31T07:33:01;101669.66;;;16.31;38.19
13456;BME280;6800;50.940;6.940;2023-01-31T07:37:03;101654.63;;;15.92;38.13
13456;BME280;6800;50.940;6.940;2023-01-31T07:41:04;101646.50;;;16.36;37.17
13456;BME280;6800;50.940;6.940;2023-01-31T07:45:07;101630.19;;;16.17;37.82
13456;BME280;6800;50.940;6.940;2023-01-31T07:49:23;101629.34;;;16.43;36.99
13456;BME280;6800;50.940;6.940;2023-01-31T07:53:30;101616.66;;;16.35;36.97
13456;BME280;6800;50.940;6.940;2023-01-31T07:57:32;101617.50;;;16.36;37.01
13456;BME280;6800;50.940;6.940;2023-01-31T08:01:33;101603.91;;;16.29;36.84
13456;BME280;6800;50.940;6.940;2023-01-31T08:05:53;101604.03;;;16.40;36.82
13456;BME280;6800;50.940;6.940;2023-01-31T08:09:55;101607.09;;;16.34;36.70
13456;BME280;6800;50.940;6.940;2023-01-31T08:13:56;101610.59;;;16.87;36.08
13456;BME280;6800;50.940;6.940;2023-01-31T08:17:57;101618.94;;;16.54;36.50
13456;BME280;6800;50.940;6.940;2023-01-31T08:21:59;101618.97;;;16.27;36.79
13456;BME280;6800;50.940;6.940;2023-01-31T08:26:03;101613.50;;;16.57;36.55
13456;BME280;6800;50.940;6.940;2023-01-31T08:30:13;101602.03;;;16.71;35.96
13456;BME280;6800;50.940;6.940;2023-01-31T08:34:15;101602.34;;;16.39;36.25
13456;BME280;6800;50.940;6.940;2023-01-31T08:38:16;101594.34;;;16.80;35.80
13456;BME280;6800;50.940;6.940;2023-01-31T08:42:18;101601.50;;;16.91;36.03
13456;BME280;6800;50.940;6.940;2023-01-31T08:46:22;101584.59;;;16.56;36.29
13456;BME280;6800;50.940;6.940;2023-01-31T08:50:33;101576.09;;;16.90;36.14
13456;BME280;6800;50.940;6.940;2023-01-31T08:54:35;101593.75;;;16.50;36.86
13456;BME280;6800;50.940;6.940;2023-01-31T08:58:38;101579.91;;;16.86;36.12
13456;BME280;6800;50.940;6.940;2023-01-31T09:02:42;101590.44;;;17.11;36.22
13456;BME280;6800;50.940;6.940;2023-01-31T09:06:43;101582.19;;;17.41;35.96
13456;BME280;6800;50.940;6.940;2023-01-31T09:10:52;101576.81;;;17.30;36.32
13456;BME280;6800;50.940;6.940;2023-01-31T09:14:53;101575.75;;;16.94;36.57
13456;BME280;6800;50.940;6.940;2023-01-31T09:18:55;101566.25;;;17.30;37.09
13456;BME280;6800;50.940;6.940;2023-01-31T09:22:57;101568.97;;;17.41;36.59
13456;BME280;6800;50.940;6.940;2023-01-31T09:26:59;101561.91;;;17.29;37.33
13456;BME280;6800;50.940;6.940;2023-01-31T09:31:05;101555.22;;;17.48;37.17
13456;BME280;6800;50.940;6.940;2023-01-31T09:35:07;101549.88;;;17.73;37.02
13456;BME280;6800;50.940;6.940;2023-01-31T09:39:10;101556.50;;;17.55;37.38
13456;BME280;6800;50.940;6.940;2023-01-31T09:43:12;101552.78;;;17.09;38.07
13456;BME280;6800;50.940;6.940;2023-01-31T09:47:20;101555.56;;;17.31;37.75
13456;BME280;6800;50.940;6.940;2023-01-31T09:51:22;101548.94;;;17.26;37.41
13456;BME280;6800;50.940;6.940;2023-01-31T09:59:47;101536.47;;;18.00;36.98
13456;BME280;6800;50.940;6.940;2023-01-31T10:08:19;101541.56;;;17.67;38.01
13456;BME280;6800;50.940;6.940;2023-01-31T10:12:58;101531.69;;;17.81;37.90
13456;BME280;6800;50.940;6.940;2023-01-31T10:17:14;101531.25;;;17.87;38.09
13456;BME280;6800;50.940;6.940;2023-01-31T10:21:22;101511.97;;;17.51;38.53
13456;BME280;6800;50.940;6.940;2023-01-31T10:25:29;101508.97;;;17.19;39.02
13456;BME280;6800;50.940;6.940;2023-01-31T10:29:38;101517.88;;;17.42;38.46
13456;BME280;6800;50.940;6.940;2023-01-31T10:38:18;101496.94;;;17.99;37.19
13456;BME280;6800;50.940;6.940;2023-01-31T10:42:31;101477.25;;;17.68;37.43
13456;BME280;6800;50.940;6.940;2023-01-31T10:46:33;101473.53;;;18.05;37.58
13456;BME280;6800;50.940;6.940;2023-01-31T10:54:58;101467.97;;;18.21;37.56
13456;BME280;6800;50.940;6.940;2023-01-31T10:59:11;101449.94;;;17.80;37.84
13456;BME280;6800;50.940;6.940;2023-01-31T11:03:15;101450.13;;;17.66;37.73
13456;BME280;6800;50.940;6.940;2023-01-31T11:07:17;101436.97;;;18.23;36.65
13456;BME280;6800;50.940;6.940;2023-01-31T11:11:22;101411.38;;;18.23;36.75
13456;BME280;6800;50.940;6.940;2023-01-31T11:15:25;101418.72;;;18.42;36.41
13456;BME280;6800;50.940;6.940;2023-01-31T11:23:33;101396.72;;;18.19;36.68
13456;BME280;6800;50.940;6.940;2023-01-31T11:27:39;101387.13;;;18.29;36.46
13456;BME280;6800;50.940;6.940;2023-01-31T11:31:41;101381.81;;;18.18;36.55
13456;BME280;6800;50.940;6.940;2023-01-31T11:35:50;101390.78;;;18.61;36.02
13456;BME280;6800;50.940;6.940;2023-01-31T11:39:55;101381.13;;;18.49;36.26
13456;BME280;6800;50.940;6.940;2023-01-31T11:44:14;101374.03;;;19.37;34.47
13456;BME280;6800;50.940;6.940;2023-01-31T11:48:22;101368.22;;;19.32;34.45
13456;BME280;6800;50.940;6.940;2023-01-31T11:52:30;101371.41;;;18.72;35.25
13456;BME280;6800;50.940;6.940;2023-01-31T11:56:34;101357.34;;;18.60;35.86
13456;BME280;6800;50.940;6.940;2023-01-31T12:00:50;101341.00;;;18.55;35.88
13456;BME280;6800;50.940;6.940;2023-01-31T12:04:53;101359.97;;;18.38;36.67
13456;BME280;6800;50.940;6.940;2023-01-31T12:08:57;101357.22;;;18.62;36.30
13456;BME280;6800;50.940;6.940;2023-01-31T12:13:01;101345.56;;;18.64;36.07
13456;BME280;6800;50.940;6.940;2023-01-31T12:17:18;101353.13;;;18.36;37.11
13456;BME280;6800;50.940;6.940;2023-01-31T12:21:37;101341.81;;;18.67;36.61
13456;BME280;6800;50.940;6.940;2023-01-31T12:30:09;101335.31;;;18.82;36.70
13456;BME280;6800;50.940;6.940;2023-01-31T12:34:41;101334.25;;;18.51;37.33
13456;BME280;6800;50.940;6.940;2023-01-31T12:57:10;101319.22;;;18.74;37.75
13456;BME280;6800;50.940;6.940;2023-01-31T13:01:23;101306.94;;;18.73;38.11
13456;BME280;6800;50.940;6.940;2023-01-31T13:05:33;101315.03;;;18.60;38.16
13456;BME280;6800;50.940;6.940;2023-01-31T13:09:38;101314.78;;;18.41;38.52
13456;BME280;6800;50.940;6.940;2023-01-31T13:13:56;101323.94;;;18.48;38.66
13456;BME280;6800;50.940;6.940;2023-01-31T13:18:03;101326.19;;;18.42;38.94
13456;BME280;6800;50.940;6.940;2023-01-31T13:22:12;101306.56;;;17.67;40.63
13456;BME280;6800;50.940;6.940;2023-01-31T13:26:26;101322.34;;;18.35;38.96
13456;BME280;6800;50.940;6.940;2023-01-31T13:30:37;101320.31;;;18.38;39.06
13456;BME280;6800;50.940;6.940;2023-01-31T13:34:44;101329.94;;;18.06;39.79
13456;BME280;6800;50.940;6.940;2023-01-31T13:38:51;101324.53;;;17.51;40.45
13456;BME280;6800;50.940;6.940;2023-01-31T13:42:53;101316.38;;;18.44;39.35
13456;BME280;6800;50.940;6.940;2023-01-31T13:47:03;101326.69;;;18.25;39.43
13456;BME280;6800;50.940;6.940;2023-01-31T13:51:16;101323.53;;;18.20;39.69
13456;BME280;6800;50.940;6.940;2023-01-31T13:55:33;101317.31;;;18.21;40.02
13456;BME280;6800;50.940;6.940;2023-01-31T13:59:36;101328.34;;;17.92;41.04
13456;BME280;6800;50.940;6.940;2023-01-31T14:08:38;101312.88;;;18.10;42.38
13456;BME280;6800;50.940;6.940;2023-01-31T14:22:10;101323.81;;;18.50;42.06
13456;BME280;6800;50.940;6.940;2023-01-31T14:30:44;101322.81;;;17.84;43.42
13456;BME280;6800;50.940;6.940;2023-01-31T14:34:48;101313.94;;;17.85;43.67
13456;BME280;6800;50.940;6.940;2023-01-31T14:39:21;101308.09;;;17.24;44.61
13456;BME280;6800;50.940;6.940;2023-01-31T14:48:11;101307.50;;;17.55;44.29
13456;BME280;6800;50.940;6.940;2023-01-31T15:00:37;101309.13;;;17.45;44.92
13456;BME280;6800;50.940;6.940;2023-01-31T15:05:03;101311.03;;;17.88;43.61
13456;BME280;6800;50.940;6.940;2023-01-31T15:13:39;101316.91;;;17.92;44.09
13456;BME280;6800;50.940;6.940;2023-01-31T15:17:43;101317.91;;;18.02;44.26
13456;BME280;6800;50.940;6.940;2023-01-31T15:21:48;101310.63;;;17.60;44.69
13456;BME280;6800;50.940;6.940;2023-01-31T15:25:56;101323.34;;;17.55;44.81
13456;BME280;6800;50.940;6.940;2023-01-31T15:30:19;101331.03;;;17.69;44.78
13456;BME280;6800;50.940;6.940;2023-01-31T15:34:26;101340.16;;;17.65;45.35
13456;BME280;6800;50.940;6.940;2023-01-31T15:38:35;101355.91;;;17.77;44.81
13456;BME280;6800;50.940;6.940;2023-01-31T15:42:38;101349.66;;;17.44;46.04
13456;BME280;6800;50.940;6.940;2023-01-31T15:46:41;101354.63;;;17.25;46.55
13456;BME280;6800;50.940;6.940;2023-01-31T15:50:55;101346.56;;;17.15;46.99
13456;BME280;6800;50.940;6.940;2023-01-31T15:55:02;101357.03;;;17.04;47.21
13456;BME280;6800;50.940;6.940;2023-01-31T15:59:12;101361.06;;;17.21;46.76
13456;BME280;6800;50.940;6.940;2023-01-31T16:03:26;101362.91;;;17.78;45.89
13456;BME280;6800;50.940;6.940;2023-01-31T16:07:28;101363.09;;;17.17;47.21
13456;BME280;6800;50.940;6.940;2023-01-31T16:11:32;101360.34;;;17.66;45.85
13456;BME280;6800;50.940;6.940;2023-01-31T16:15:34;101369.53;;;17.60;46.09
13456;BME280;6800;50.940;6.940;2023-01-31T16:19:36;101367.13;;;17.92;45.91
13456;BME280;6800;50.940;6.940;2023-01-31T16:23:38;101369.75;;;17.92;45.38
13456;BME280;6800;50.940;6.940;2023-01-31T16:27:41;101369.75;;;17.92;45.62
13456;BME280;6800;50.940;6.940;2023-01-31T16:31:53;101372.78;;;17.87;45.15
13456;BME280;6800;50.940;6.940;2023-01-31T16:36:09;101372.53;;;17.90;45.74
13456;BME280;6800;50.940;6.940;2023-01-31T16:40:18;101381.06;;;17.94;45.28
13456;BME280;6800;50.940;6.940;2023-01-31T16:44:21;101387.22;;;18.17;45.11
13456;BME280;6800;50.940;6.940;2023-01-31T16:48:30;101382.03;;;18.04;45.49
13456;BME280;6800;50.940;6.940;2023-01-31T16:52:32;101390.47;;;18.20;44.79
13456;BME280;6800;50.940;6.940;2023-01-31T16:56:34;101394.28;;;18.05;44.99
13456;BME280;6800;50.940;6.940;2023-01-31T17:00:35;101398.53;;;18.41;44.59
13456;BME280;6800;50.940;6.940;2023-01-31T17:04:38;101402.72;;;18.32;45.04
13456;BME280;6800;50.940;6.940;2023-01-31T17:08:41;101409.09;;;18.41;44.76
13456;BME280;6800;50.940;6.940;2023-01-31T17:12:43;101398.41;;;18.31;44.88
13456;BME280;6800;50.940;6.940;2023-01-31T17:16:44;101413.78;;;18.37;44.77
13456;BME280;6800;50.940;6.940;2023-01-31T17:20:47;101404.38;;;18.00;45.29
13456;BME280;6800;50.940;6.940;2023-01-31T17:24:51;101402.97;;;18.18;45.05
13456;BME280;6800;50.940;6.940;2023-01-31T17:28:52;101410.91;;;18.29;45.09
13456;BME280;6800;50.940;6.940;2023-01-31T17:33:02;101422.66;;;18.14;44.81
13456;BME280;6800;50.940;6.940;2023-01-31T17:37:04;101415.50;;;17.92;45.15
13456;BME280;6800;50.940;6.940;2023-01-31T17:41:10;101415.81;;;18.23;44.34
13456;BME280;6800;50.940;6.940;2023-01-31T17:45:14;101417.16;;;18.28;44.13
13456;BME280;6800;50.940;6.940;2023-01-31T17:49:17;101407.31;;;18.19;44.19
13456;BME280;6800;50.940;6.940;2023-01-31T17:53:19;101404.66;;;18.30;43.75
13456;BME280;6800;50.940;6.940;2023-01-31T17:57:20;101407.88;;;18.12;44.17
13456;BME280;6800;50.940;6.940;2023-01-31T18:01:21;101407.88;;;18.12;44.07
13456;BME280;6800;50.940;6.940;2023-01-31T18:05:23;101393.16;;;17.51;45.54
13456;BME280;6800;50.940;6.940;2023-01-31T18:09:39;101385.97;;;17.87;45.01
13456;BME280;6800;50.940;6.940;2023-01-31T18:13:40;101386.22;;;17.96;45.08
13456;BME280;6800;50.940;6.940;2023-01-31T18:17:42;101385.91;;;18.33;44.03
13456;BME280;6800;50.940;6.940;2023-01-31T18:21:43;101391.31;;;18.21;44.49
13456;BME280;6800;50.940;6.940;2023-01-31T18:25:55;101388.56;;;18.33;43.79
13456;BME280;6800;50.940;6.940;2023-01-31T18:29:56;101377.78;;;18.47;43.69
13456;BME280;6800;50.940;6.940;2023-01-31T18:33:57;101375.25;;;18.46;43.72
13456;BME280;6800;50.940;6.940;2023-01-31T18:37:59;101374.78;;;18.63;43.39
13456;BME280;6800;50.940;6.940;2023-01-31T18:42:06;101375.25;;;18.46;43.40
13456;BME280;6800;50.940;6.940;2023-01-31T18:46:08;101370.78;;;18.35;43.92
13456;BME280;6800;50.940;6.940;2023-01-31T18:50:10;101364.69;;;18.57;43.54
13456;BME280;6800;50.940;6.940;2023-01-31T18:54:12;101371.16;;;18.42;43.75
13456;BME280;6800;50.940;6.940;2023-01-31T18:58:15;101366.09;;;18.39;43.82
13456;BME280;6800;50.940;6.940;2023-01-31T19:02:17;101356.59;;;18.25;43.66
13456;BME280;6800;50.940;6.940;2023-01-31T19:06:21;101372.59;;;17.78;44.32
13456;BME280;6800;50.940;6.940;2023-01-31T19:10:23;101382.56;;;18.42;42.95
13456;BME280;6800;50.940;6.940;2023-01-31T19:14:24;101385.97;;;17.99;43.75
13456;BME280;6800;50.940;6.940;2023-01-31T19:18:26;101386.03;;;18.21;43.09
13456;BME280;6800;50.940;6.940;2023-01-31T19:22:29;101384.34;;;18.31;42.64
13456;BME280;6800;50.940;6.940;2023-01-31T19:26:32;101379.03;;;17.98;43.09
13456;BME280;6800;50.940;6.940;2023-01-31T19:30:33;101372.28;;;17.82;42.97
13456;BME280;6800;50.940;6.940;2023-01-31T19:34:35;101385.59;;;17.92;42.76
13456;BME280;6800;50.940;6.940;2023-01-31T19:38:37;101389.81;;;17.94;42.26
13456;BME280;6800;50.940;6.940;2023-01-31T19:42:39;101393.19;;;17.97;41.98
13456;BME280;6800;50.940;6.940;2023-01-31T19:46:42;101388.28;;;18.03;41.55
13456;BME280;6800;50.940;6.940;2023-01-31T19:50:44;101376.31;;;18.21;40.91
13456;BME280;6800;50.940;6.940;2023-01-31T19:54:45;101391.72;;;17.92;41.11
13456;BME280;6800;50.940;6.940;2023-01-31T19:58:47;101381.09;;;17.59;42.47
13456;BME280;6800;50.940;6.940;2023-01-31T20:02:48;101380.50;;;17.67;42.28
13456;BME280;6800;50.940;6.940;2023-01-31T20:06:50;101383.25;;;17.42;42.39
13456;BME280;6800;50.940;6.940;2023-01-31T20:10:53;101399.47;;;17.72;42.12
13456;BME280;6800;50.940;6.940;2023-01-31T20:14:55;101400.13;;;17.52;42.83
13456;BME280;6800;50.940;6.940;2023-01-31T20:18:56;101405.06;;;17.91;42.28
13456;BME280;6800;50.940;6.940;2023-01-31T20:23:00;101403.69;;;17.74;42.69
13456;BME280;6800;50.940;6.940;2023-01-31T20:27:01;101413.97;;;18.01;42.54
13456;BME280;6800;50.940;6.940;2023-01-31T20:31:05;101413.09;;;17.55;44.08
13456;BME280;6800;50.940;6.940;2023-01-31T20:35:07;101441.03;;;17.34;45.50
13456;BME280;6800;50.940;6.940;2023-01-31T20:39:10;101446.13;;;17.24;43.88
13456;BME280;6800;50.940;6.940;2023-01-31T20:43:12;101426.69;;;17.01;42.51
13456;BME280;6800;50.940;6.940;2023-01-31T20:47:13;101417.09;;;17.48;40.92
13456;BME280;6800;50.940;6.940;2023-01-31T20:51:15;101401.59;;;17.43;40.62
13456;BME280;6800;50.940;6.940;2023-01-31T20:55:17;101409.94;;;16.90;41.63
13456;BME280;6800;50.940;6.940;2023-01-31T20:59:18;101404.88;;;17.23;40.85
13456;BME280;6800;50.940;6.940;2023-01-31T21:03:20;101418.84;;;17.12;41.62
13456;BME280;6800;50.940;6.940;2023-01-31T21:07:22;101404.22;;;17.32;40.79
13456;BME280;6800;50.940;6.940;2023-01-31T21:11:23;101409.03;;;17.38;41.87
13456;BME280;6800;50.940;6.940;2023-01-31T21:15:25;101399.16;;;17.53;41.74
13456;BME280;6800;50.940;6.940;2023-01-31T21:19:29;101402.34;;;17.69;41.86
13456;BME280;6800;50.940;6.940;2023-01-31T21:23:30;101398.25;;;17.65;42.03
13456;BME280;6800;50.940;6.940;2023-01-31T21:27:32;101386.91;;;17.86;42.26
13456;BME280;6800;50.940;6.940;2023-01-31T21:31:33;101389.72;;;17.96;42.69
13456;BME280;6800;50.940;6.940;2023-01-31T21:35:35;101380.31;;;17.92;43.05
13456;BME280;6800;50.940;6.940;2023-01-31T21:39:37;101377.88;;;17.78;43.75
13456;BME280;6800;50.940;6.940;2023-01-31T21:43:38;101374.94;;;17.93;44.06
13456;BME280;6800;50.940;6.940;2023-01-31T21:47:42;101364.03;;;18.09;44.14
13456;BME280;6800;50.940;6.940;2023-01-31T21:52:03;101357.69;;;17.66;44.72
13456;BME280;6800;50.940;6.940;2023-01-31T21:56:13;101361.44;;;17.74;44.08
13456;BME280;6800;50.940;6.940;2023-01-31T22:00:15;101369.31;;;17.98;43.84
13456;BME280;6800;50.940;6.940;2023-01-31T22:04:17;101373.34;;;17.80;44.10
13456;BME280;6800;50.940;6.940;2023-01-31T22:08:23;101368.09;;;17.91;43.64
13456;BME280;6800;50.940;6.940;2023-01-31T22:12:24;101358.75;;;17.98;43.25
13456;BME280;6800;50.940;6.940;2023-01-31T22:16:26;101360.13;;;17.80;44.33
13456;BME280;6800;50.940;6.940;2023-01-31T22:20:27;101352.47;;;17.77;44.27
13456;BME280;6800;50.940;6.940;2023-01-31T22:24:29;101344.31;;;17.91;44.14
13456;BME280;6800;50.940;6.940;2023-01-31T22:28:30;101335.16;;;17.84;43.84
13456;BME280;6800;50.940;6.940;2023-01-31T22:32:31;101342.41;;;18.04;43.73
13456;BME280;6800;50.940;6.940;2023-01-31T22:36:33;101342.25;;;17.94;43.88
13456;BME280;6800;50.940;6.940;2023-01-31T22:40:35;101344.66;;;17.86;43.63
13456;BME280;6800;50.940;6.940;2023-01-31T22:44:43;101337.13;;;18.04;43.56
13456;BME280;6800;50.940;6.940;2023-01-31T22:48:45;101330.59;;;17.86;44.41
13456;BME280;6800;50.940;6.940;2023-01-31T22:52:49;101329.31;;;18.03;43.51
13456;BME280;6800;50.940;6.940;2023-01-31T22:56:50;101324.88;;;18.03;43.10
13456;BME280;6800;50.940;6.940;2023-01-31T23:00:52;101322.78;;;17.73;43.63
13456;BME280;6800;50.940;6.940;2023-01-31T23:04:53;101328.00;;;18.08;43.10
13456;BME280;6800;50.940;6.940;2023-01-31T23:08:55;101321.72;;;17.76;43.36
13456;BME280;6800;50.940;6.940;2023-01-31T23:12:57;101320.06;;;18.08;43.04